meuadvogado.com.br alexa rank chart, meuadvogado.com.br alexa rank daily changes

meuadvogado.com.br alexa rank chart, meuadvogado.com.br alexa rank daily changes

meuadvogado.com.br
Actual rank:
373 544

RANK HISTORY

Date Rank Diff
2017/01/18 373 544 +20 169
2017/01/17 353 375 +1 403
2017/01/16 351 972 -1 231
2017/01/15 353 203 +7 399
2017/01/14 345 804 -4 960
2017/01/13 350 764 -3 926
2017/01/12 354 690 +3 499
2017/01/11 351 191 -1 509
2017/01/10 352 700 +5 045
2017/01/09 347 655 +3 671
2017/01/08 343 984 +1 275
2017/01/07 342 709 +16 008
2017/01/06 326 701 -4 573
2017/01/05 331 274 -1 531
2017/01/04 332 805 -6 909
2017/01/03 339 714 +14 237
2017/01/02 325 477 -4 478
2017/01/01 329 955 +1 809
2016/12/31 328 146 +15 851
2016/12/30 312 295 +10 485
2016/12/29 301 810 -4 037
2016/12/28 305 847 +2 255
2016/12/27 303 592 +8 802
2016/12/26 294 790 +3 973
2016/12/25 290 817 +4 637
2016/12/24 286 180 +7 627
2016/12/23 278 553 -375
2016/12/22 278 928 -3 724
2016/12/21 282 652 +2 926
2016/12/20 279 726 +3 951
2016/12/19 275 775 +1 185
2016/12/18 274 590 -6 098
2016/12/17 280 688 +2 716
2016/12/16 277 972 +2 263
2016/12/15 275 709 -7 528
2016/12/14 283 237 -153
2016/12/13 283 390 +4 983
2016/12/12 278 407 +3 863
2016/12/11 274 544 +4 543
2016/12/10 270 001 -6 967
2016/12/09 276 968 +5 108
2016/12/08 271 860 -1 580
2016/12/07 273 440 -12 779
2016/12/06 286 219 +6 843
2016/12/05 279 376 +63
2016/12/04 279 313 +15 231
2016/12/02 264 082 +7 305
2016/12/01 256 777 -13 454
2016/11/30 270 231 -1 188
2016/11/29 271 419 +6 394
2016/11/28 265 025 +11 812
2016/11/27 253 213 -11 496
2016/11/26 264 709 +4 373
2016/11/25 260 336 +10 653
2016/11/24 249 683 -9 624
2016/11/23 259 307 -5 669
2016/11/19 264 976

WIDGET FOR YOUR SITE

DOMAINS WITH THE NEAREST RANK

Domain Rank
meedc.ir 373 539
itisporn.com 373 540
rikkyo-tourism.com 373 541
kazindex.ru 373 542
vgm.io 373 543
meuadvogado.com.br 373 544
stoneandstrand.com 373 545
blindtextgenerator.de 373 546
ask4.com 373 547
zhuaji.org 373 548
ifreespeed.ml 373 549

DOMAINS WITH THE NEAREST RANK BY TLD .com.br

Domain Rank
a25festas.com.br 373 291
gennera.com.br 373 387
cadence.com.br 373 407
poltronanerd.com.br 373 440
betolinks.com.br 373 459
meuadvogado.com.br 373 544
anamariabrogui.com.br 373 590
anacapri.com.br 373 651
adrenalinamotoracing.com.br 373 659
novabrasilfm.com.br 373 889
banesecard.com.br 374 090